createdAt,value
2018-06-18T00:01:55.825Z,93.35
2018-06-18T00:04:24.839Z,93.52
2018-06-18T00:06:53.886Z,93.43
2018-06-18T00:09:22.916Z,92.73
2018-06-18T00:11:51.933Z,92.21
2018-06-18T00:14:20.908Z,92.27
2018-06-18T00:16:49.872Z,92.51
2018-06-18T00:19:18.853Z,93.43
2018-06-18T00:21:47.887Z,93.80
2018-06-18T00:24:16.913Z,93.25
2018-06-18T00:26:45.868Z,93.76
2018-06-18T00:29:14.866Z,94.07
2018-06-18T00:31:43.866Z,93.85
2018-06-18T00:34:12.973Z,93.18
2018-06-18T00:36:41.939Z,94.30
2018-06-18T00:39:10.920Z,94.11
2018-06-18T00:41:39.884Z,93.93
2018-06-18T00:44:08.916Z,94.14
2018-06-18T00:46:37.900Z,94.60
2018-06-18T00:49:06.952Z,95.47
2018-06-18T00:51:35.906Z,95.81
2018-06-18T00:54:04.956Z,95.84
2018-06-18T00:56:33.968Z,95.72
2018-06-18T00:59:03.041Z,95.20
2018-06-18T01:01:31.999Z,95.60
2018-06-18T01:04:01.117Z,95.89
2018-06-18T01:06:30.093Z,97.11
2018-06-18T01:08:59.099Z,97.34
2018-06-18T01:11:28.149Z,97.14
2018-06-18T01:13:57.257Z,96.79
2018-06-18T01:16:26.301Z,97.88
2018-06-18T01:18:55.323Z,97.70
2018-06-18T01:21:24.381Z,96.73
2018-06-18T01:24:19.117Z,97.34
2018-06-18T01:26:48.075Z,96.67
2018-06-18T01:29:17.093Z,95.76
2018-06-18T01:31:46.156Z,95.78
2018-06-18T01:34:25.257Z,95.36
2018-06-18T01:36:54.583Z,95.55
2018-06-18T01:39:24.096Z,95.81
2018-06-18T01:41:53.651Z,95.34
2018-06-18T01:44:22.664Z,95.54
2018-06-18T01:46:51.769Z,95.40
2018-06-18T01:49:21.016Z,96.26
2018-06-18T01:51:50.243Z,96.98
2018-06-18T01:54:19.560Z,96.77
2018-06-18T01:56:48.895Z,96.73
2018-06-18T01:59:18.181Z,96.85
2018-06-18T02:01:47.605Z,97.07
2018-06-18T02:04:16.860Z,96.97
2018-06-18T02:06:46.029Z,97.13
2018-06-18T02:09:15.207Z,96.24
2018-06-18T02:11:44.448Z,96.61
2018-06-18T02:14:13.651Z,96.92
2018-06-18T02:16:42.897Z,97.25
2018-06-18T02:19:11.852Z,97.31
2018-06-18T02:21:41.038Z,97.10
2018-06-18T02:24:10.049Z,97.01
2018-06-18T02:26:39.012Z,96.77
2018-06-18T02:29:12.997Z,96.71
2018-06-18T02:31:47.121Z,96.46
2018-06-18T02:34:21.287Z,95.95
2018-06-18T02:36:55.577Z,96.31
2018-06-18T02:39:24.859Z,96.03
2018-06-18T02:41:54.159Z,96.37
2018-06-18T02:44:23.125Z,95.58
2018-06-18T02:46:52.157Z,95.49
2018-06-18T02:49:21.176Z,96.32
2018-06-18T02:51:50.193Z,95.97
2018-06-18T02:54:19.204Z,96.26
2018-06-18T02:56:52.397Z,96.04
2018-06-18T02:59:21.432Z,96.22
2018-06-18T03:01:50.393Z,96.26
2018-06-18T03:04:19.444Z,96.54
2018-06-18T03:06:48.400Z,96.61
2018-06-18T03:09:17.378Z,97.34
2018-06-18T03:11:46.336Z,96.78
2018-06-18T03:14:15.375Z,97.17
2018-06-18T03:16:44.421Z,96.90
2018-06-18T03:19:18.525Z,96.03
2018-06-18T03:21:52.615Z,95.95
2018-06-18T03:24:26.868Z,94.00
2018-06-18T03:27:00.892Z,95.59
2018-06-18T03:29:32.892Z,95.70
2018-06-18T03:32:03.881Z,95.74
2018-06-18T03:34:32.851Z,95.99
2018-06-18T03:37:02.389Z,94.88
2018-06-18T03:39:31.784Z,94.73
2018-06-18T03:42:01.135Z,94.58
2018-06-18T03:44:33.792Z,94.06
2018-06-18T03:47:07.953Z,94.93
2018-06-18T03:49:36.939Z,94.70
2018-06-18T03:52:05.964Z,94.58
2018-06-18T03:54:35.164Z,94.49
2018-06-18T03:57:04.399Z,94.91
2018-06-18T03:59:33.644Z,94.98
2018-06-18T04:02:13.881Z,94.96
2018-06-18T04:04:50.431Z,95.69
2018-06-18T04:07:25.696Z,95.22
2018-06-18T04:09:59.839Z,94.77
2018-06-18T04:12:29.217Z,95.54
2018-06-18T04:14:58.686Z,94.29
2018-06-18T04:17:27.967Z,93.95
2018-06-18T04:19:57.307Z,93.27
2018-06-18T04:22:26.559Z,91.39
2018-06-18T04:24:55.792Z,90.68
2018-06-18T04:27:25.049Z,91.04
2018-06-18T04:29:54.332Z,90.79
2018-06-18T04:32:23.548Z,91.08
2018-06-18T04:35:03.312Z,89.93
2018-06-18T04:37:32.703Z,90.04
2018-06-18T04:40:01.960Z,88.78
2018-06-18T04:42:36.021Z,88.43
2018-06-18T04:45:10.200Z,86.29
2018-06-18T04:47:44.271Z,85.75
2018-06-18T04:50:18.575Z,84.87
2018-06-18T04:52:47.992Z,84.82
2018-06-18T04:55:17.386Z,83.61
2018-06-18T04:57:46.482Z,83.51
2018-06-18T05:00:26.921Z,82.45
2018-06-18T05:02:56.272Z,82.13
2018-06-18T05:05:25.513Z,80.53
2018-06-18T05:08:01.252Z,79.92
2018-06-18T05:10:30.696Z,79.28
2018-06-18T05:12:59.970Z,77.96
2018-06-18T05:15:36.512Z,78.27
2018-06-18T05:18:05.837Z,78.25
2018-06-18T05:20:35.200Z,77.19
2018-06-18T05:23:08.601Z,76.86
2018-06-18T05:25:37.846Z,77.17
2018-06-18T05:28:07.149Z,76.96
2018-06-18T05:30:36.491Z,74.62
2018-06-18T05:33:05.739Z,74.89
2018-06-18T05:35:35.040Z,75.34
2018-06-18T05:38:19.933Z,75.67
2018-06-18T05:40:49.152Z,76.45
2018-06-18T05:43:18.487Z,78.22
2018-06-18T05:45:47.792Z,77.45
2018-06-18T05:48:17.036Z,78.47
2018-06-18T05:50:46.428Z,79.26
2018-06-18T05:53:15.775Z,79.01
2018-06-18T05:55:45.049Z,77.73
2018-06-18T05:58:14.481Z,78.25
2018-06-18T06:00:43.521Z,78.29
2018-06-18T06:03:12.871Z,77.54
2018-06-18T06:05:42.249Z,78.00
2018-06-18T06:08:11.621Z,78.26
2018-06-18T06:10:40.938Z,76.92
2018-06-18T06:13:10.920Z,75.78
2018-06-18T06:15:41.265Z,76.88
2018-06-18T06:18:10.461Z,75.11
2018-06-18T06:20:46.549Z,74.99
2018-06-18T06:23:15.813Z,75.44
2018-06-18T06:25:44.905Z,77.15
2018-06-18T06:28:13.883Z,74.17
2018-06-18T06:30:42.916Z,73.51
2018-06-18T06:33:12.122Z,72.77
2018-06-18T06:35:42.865Z,75.05
2018-06-18T06:38:12.199Z,78.13
2018-06-18T06:40:41.726Z,81.56
2018-06-18T06:43:11.395Z,83.54
2018-06-18T06:45:41.556Z,82.85
2018-06-18T06:48:10.662Z,83.38
2018-06-18T06:50:39.692Z,84.40
2018-06-18T06:53:08.888Z,84.88
2018-06-18T06:55:38.087Z,85.65
2018-06-18T06:58:07.336Z,83.68
2018-06-18T07:00:36.369Z,82.22
2018-06-18T07:03:05.400Z,81.26
2018-06-18T07:05:34.360Z,81.32
2018-06-18T07:08:03.611Z,81.28
2018-06-18T07:10:32.859Z,81.50
2018-06-18T07:13:02.121Z,80.61
2018-06-18T07:15:31.487Z,82.24
2018-06-18T07:18:00.714Z,78.69
2018-06-18T07:20:29.936Z,78.07
2018-06-18T07:22:59.084Z,80.57
2018-06-18T07:25:28.296Z,76.47
2018-06-18T07:27:57.656Z,76.79
2018-06-18T07:30:27.034Z,78.86
2018-06-18T07:32:55.951Z,79.95
2018-06-18T07:35:24.924Z,75.94
2018-06-18T07:37:53.888Z,73.93
2018-06-18T07:40:22.928Z,74.39
2018-06-18T07:42:52.010Z,73.21
2018-06-18T07:45:21.053Z,71.69
2018-06-18T07:47:50.188Z,70.64
2018-06-18T07:50:19.192Z,73.84
2018-06-18T07:52:48.168Z,72.81
2018-06-18T07:55:17.200Z,70.79
2018-06-18T07:57:46.152Z,68.47
2018-06-18T08:00:15.144Z,69.46
2018-06-18T08:02:44.214Z,70.88
2018-06-18T08:05:13.237Z,64.61
2018-06-18T08:07:42.304Z,66.63
2018-06-18T08:10:11.584Z,65.15
2018-06-18T08:12:40.759Z,62.55
2018-06-18T08:15:10.048Z,63.21
2018-06-18T08:17:39.280Z,64.74
2018-06-18T08:20:08.747Z,65.43
2018-06-18T08:22:38.038Z,65.72
2018-06-18T08:25:07.393Z,65.45
2018-06-18T08:27:36.680Z,64.96
2018-06-18T08:30:06.232Z,65.23
2018-06-18T08:32:35.525Z,62.74
2018-06-18T08:35:04.999Z,64.91
2018-06-18T08:37:34.418Z,65.65
2018-06-18T08:40:03.769Z,64.13
2018-06-18T08:42:33.019Z,63.86
2018-06-18T08:45:02.390Z,63.84
2018-06-18T08:47:31.664Z,60.24
2018-06-18T08:50:05.913Z,59.68
2018-06-18T08:52:39.943Z,63.41
2018-06-18T08:55:14.112Z,60.75
2018-06-18T08:57:48.504Z,60.07
2018-06-18T09:00:22.672Z,59.77
2018-06-18T09:04:58.656Z,62.72
2018-06-18T09:07:31.075Z,66.09
2018-06-18T09:10:01.112Z,65.92
2018-06-18T09:12:30.310Z,61.72
2018-06-18T09:14:59.285Z,61.04
2018-06-18T09:17:28.673Z,60.21
2018-06-18T09:19:57.880Z,63.42
2018-06-18T09:22:27.216Z,61.33
2018-06-18T09:24:56.202Z,61.97
2018-06-18T09:27:25.580Z,62.16
2018-06-18T09:29:59.557Z,62.46
2018-06-18T09:32:29.085Z,59.00
2018-06-18T09:34:58.191Z,58.86
2018-06-18T09:37:27.395Z,60.50
2018-06-18T09:39:56.776Z,59.76
2018-06-18T09:42:25.948Z,58.28
2018-06-18T09:44:55.127Z,56.12
2018-06-18T09:47:24.473Z,58.37
2018-06-18T09:49:58.312Z,59.53
2018-06-18T09:52:32.407Z,58.93
2018-06-18T09:55:06.497Z,58.64
2018-06-18T09:57:40.816Z,59.10
2018-06-18T10:00:19.761Z,62.34
2018-06-18T10:02:49.024Z,61.55
2018-06-18T10:05:18.036Z,63.26
2018-06-18T10:07:47.319Z,61.72
2018-06-18T10:10:16.632Z,61.81
2018-06-18T10:12:45.963Z,60.30
2018-06-18T10:15:15.241Z,56.44
2018-06-18T10:17:44.445Z,57.46
2018-06-18T10:20:13.684Z,56.68
2018-06-18T10:22:42.992Z,57.73
2018-06-18T10:25:12.176Z,59.53
2018-06-18T10:27:41.511Z,57.62
2018-06-18T10:30:10.863Z,55.99
2018-06-18T10:32:45.152Z,55.42
2018-06-18T10:35:19.711Z,56.69
2018-06-18T10:37:53.936Z,57.25
2018-06-18T10:40:28.380Z,54.58
2018-06-18T10:43:02.608Z,55.17
2018-06-18T10:45:31.971Z,53.94
2018-06-18T10:48:01.148Z,53.23
2018-06-18T10:50:30.358Z,53.13
2018-06-18T10:52:59.660Z,52.95
2018-06-18T10:55:28.991Z,55.25
2018-06-18T10:57:58.358Z,60.89
2018-06-18T11:00:28.597Z,65.26
2018-06-18T11:02:57.785Z,67.67
2018-06-18T11:05:31.937Z,68.28
2018-06-18T11:08:01.044Z,70.63
2018-06-18T11:10:30.263Z,70.43
2018-06-18T11:12:59.464Z,72.70
2018-06-18T11:15:28.712Z,76.31
2018-06-18T11:20:09.910Z,79.25
2018-06-18T11:22:44.298Z,78.77
2018-06-18T11:25:18.456Z,77.94
2018-06-18T11:27:47.712Z,79.94
2018-06-18T11:30:16.911Z,80.47
2018-06-18T11:32:46.268Z,75.57
2018-06-18T11:35:16.423Z,76.37
2018-06-18T11:37:45.442Z,79.22
2018-06-18T11:40:14.589Z,80.35
2018-06-18T11:42:43.580Z,81.81
2018-06-18T11:45:12.804Z,79.63
2018-06-18T11:47:42.049Z,81.12
2018-06-18T11:50:11.276Z,75.23
2018-06-18T11:52:40.514Z,77.32
2018-06-18T11:55:09.802Z,77.05
2018-06-18T11:57:39.041Z,75.56
2018-06-18T12:00:13.617Z,77.43
2018-06-18T12:02:47.976Z,79.33
2018-06-18T12:05:22.176Z,78.81
2018-06-18T12:07:56.313Z,79.08
2018-06-18T12:10:25.676Z,78.07
2018-06-18T12:12:54.724Z,75.72
2018-06-18T12:15:23.940Z,76.54
2018-06-18T12:17:53.004Z,77.31
2018-06-18T12:20:22.120Z,77.27
2018-06-18T12:22:51.464Z,76.87
2018-06-18T12:25:20.710Z,78.08
2018-06-18T12:27:50.054Z,78.85
2018-06-18T12:30:19.392Z,82.40
2018-06-18T12:32:48.640Z,83.94
2018-06-18T12:35:17.954Z,83.27
2018-06-18T12:37:47.425Z,84.46
2018-06-18T12:40:16.700Z,83.76
2018-06-18T12:42:45.740Z,82.29
2018-06-18T12:45:21.867Z,84.79
2018-06-18T12:47:56.168Z,84.98
2018-06-18T12:50:30.317Z,85.29
2018-06-18T12:53:04.657Z,84.27
2018-06-18T12:55:38.871Z,83.87
2018-06-18T12:58:08.266Z,84.55
2018-06-18T13:00:37.584Z,84.71
2018-06-18T13:03:09.886Z,85.31
2018-06-18T13:05:39.142Z,85.02
2018-06-18T13:08:08.573Z,85.29
2018-06-18T13:10:37.936Z,86.27
2018-06-18T13:13:07.320Z,85.72
2018-06-18T13:15:36.713Z,84.55
2018-06-18T13:18:06.136Z,84.53
2018-06-18T13:20:35.511Z,86.08
2018-06-18T13:23:04.723Z,85.80
2018-06-18T13:25:34.040Z,84.47
2018-06-18T13:28:08.441Z,85.44
2018-06-18T13:30:37.681Z,85.76
2018-06-18T13:33:07.023Z,84.98
2018-06-18T13:35:36.213Z,84.94
2018-06-18T13:38:10.504Z,84.97
2018-06-18T13:40:44.648Z,83.86
2018-06-18T13:43:18.937Z,84.11
2018-06-18T13:45:53.090Z,84.02
2018-06-18T13:48:26.309Z,82.58
2018-06-18T13:50:55.644Z,81.94
2018-06-18T13:53:24.958Z,83.30
2018-06-18T13:55:54.239Z,84.22
2018-06-18T13:58:23.316Z,83.53
2018-06-18T14:00:52.575Z,82.65
2018-06-18T14:03:21.879Z,82.98
2018-06-18T14:05:51.220Z,83.55
2018-06-18T14:08:20.417Z,81.82
2018-06-18T14:10:49.684Z,81.98
2018-06-18T14:13:18.984Z,79.53
2018-06-18T14:15:48.372Z,79.64
2018-06-18T14:18:17.476Z,81.05
2018-06-18T14:20:46.695Z,80.20
2018-06-18T14:23:15.976Z,81.29
2018-06-18T14:25:45.228Z,81.28
2018-06-18T14:28:14.184Z,80.38
2018-06-18T14:30:48.497Z,79.02
2018-06-18T14:33:22.660Z,78.35
2018-06-18T14:35:56.939Z,79.54
2018-06-18T14:38:31.245Z,77.62
2018-06-18T14:41:00.459Z,77.00
2018-06-18T14:43:29.735Z,75.31
2018-06-18T14:45:59.108Z,75.03
2018-06-18T14:48:28.533Z,74.95
2018-06-18T14:50:57.509Z,73.56
2018-06-18T14:53:26.490Z,73.43
2018-06-18T14:56:06.321Z,71.25
2018-06-18T14:58:35.368Z,69.68
2018-06-18T15:01:04.332Z,69.34
2018-06-18T15:03:33.696Z,73.72
2018-06-18T15:06:02.738Z,73.76
2018-06-18T15:08:31.832Z,73.44
2018-06-18T15:11:00.826Z,73.73
2018-06-18T15:13:29.837Z,72.13
2018-06-18T15:16:03.937Z,72.73
2018-06-18T15:18:32.880Z,73.85
2018-06-18T15:21:03.529Z,73.91
2018-06-18T15:23:32.929Z,72.76
2018-06-18T15:26:01.929Z,72.30
2018-06-18T15:28:31.028Z,73.06
2018-06-18T15:31:00.144Z,72.09
2018-06-18T15:33:29.377Z,72.58
2018-06-18T15:35:58.327Z,73.73
2018-06-18T15:38:27.655Z,73.77
2018-06-18T15:40:56.985Z,73.92
2018-06-18T15:43:26.135Z,75.49
2018-06-18T15:45:55.477Z,74.46
2018-06-18T15:48:24.812Z,73.76
2018-06-18T15:50:54.180Z,75.20
2018-06-18T15:53:23.669Z,73.68
2018-06-18T15:55:52.859Z,74.23
2018-06-18T15:58:22.130Z,72.75
2018-06-18T16:00:51.317Z,73.51
2018-06-18T16:03:20.631Z,73.52
2018-06-18T16:05:50.050Z,72.57
2018-06-18T16:08:19.241Z,73.56
2018-06-18T16:10:48.416Z,74.75
2018-06-18T16:13:17.575Z,75.31
2018-06-18T16:15:46.793Z,74.76
2018-06-18T16:18:16.007Z,76.32
2018-06-18T16:20:45.273Z,75.84
2018-06-18T16:23:14.544Z,75.79
2018-06-18T16:25:43.759Z,75.75
2018-06-18T16:28:12.997Z,76.87
2018-06-18T16:30:42.027Z,77.45
2018-06-18T16:33:11.239Z,77.24
2018-06-18T16:35:40.452Z,77.67
2018-06-18T16:38:09.797Z,77.78
2018-06-18T16:40:38.873Z,76.16
2018-06-18T16:43:08.293Z,76.05
2018-06-18T16:45:37.636Z,75.79
2018-06-18T16:48:07.004Z,70.41
2018-06-18T16:50:36.287Z,70.66
2018-06-18T16:53:05.496Z,71.77
2018-06-18T16:55:34.949Z,76.10
2018-06-18T16:58:04.247Z,78.80
2018-06-18T17:00:33.624Z,80.53
2018-06-18T17:03:03.570Z,82.87
2018-06-18T17:05:33.634Z,83.54
2018-06-18T17:08:03.409Z,83.89
2018-06-18T17:10:33.329Z,86.42
2018-06-18T17:13:02.644Z,87.56
2018-06-18T17:15:31.928Z,90.27
2018-06-18T17:18:01.262Z,92.22
2018-06-18T17:20:30.630Z,93.53
2018-06-18T17:23:00.378Z,92.93
2018-06-18T17:25:29.695Z,94.04
2018-06-18T17:27:59.151Z,95.10
2018-06-18T17:30:28.710Z,94.60
2018-06-18T17:32:58.492Z,94.60
2018-06-18T17:35:27.945Z,94.34
2018-06-18T17:38:00.471Z,93.53
2018-06-18T17:40:29.923Z,94.70
2018-06-18T17:43:00.713Z,94.85
2018-06-18T17:45:30.275Z,95.70
2018-06-18T17:47:59.947Z,96.78
2018-06-18T17:50:29.293Z,96.91
2018-06-18T17:52:58.825Z,98.80
2018-06-18T17:55:28.343Z,99.55
2018-06-18T17:57:57.963Z,99.46
2018-06-18T18:00:27.528Z,99.56
2018-06-18T18:02:56.848Z,98.86
2018-06-18T18:05:26.212Z,97.60
2018-06-18T18:07:55.648Z,97.47
2018-06-18T18:10:25.135Z,99.15
2018-06-18T18:12:54.637Z,99.55
2018-06-18T18:15:24.155Z,98.88
2018-06-18T18:17:53.600Z,99.50
2018-06-18T18:20:23.120Z,98.78
2018-06-18T18:22:52.688Z,99.49
2018-06-18T18:25:22.336Z,98.97
2018-06-18T18:27:51.899Z,98.39
2018-06-18T18:30:21.390Z,97.98
2018-06-18T18:32:50.802Z,98.00
2018-06-18T18:35:20.296Z,98.13
2018-06-18T18:37:49.496Z,98.95
2018-06-18T18:40:18.756Z,99.01
2018-06-18T18:42:48.198Z,99.06
2018-06-18T18:45:17.549Z,99.71
2018-06-18T18:47:46.881Z,98.75
2018-06-18T18:50:16.181Z,99.13
2018-06-18T18:52:45.448Z,98.84
2018-06-18T18:55:35.503Z,99.20
2018-06-18T18:58:16.544Z,98.90
2018-06-18T19:00:46.668Z,98.51
2018-06-18T19:03:17.167Z,97.78
2018-06-18T19:05:46.898Z,98.24
2018-06-18T19:08:23.875Z,99.64
2018-06-18T19:10:53.057Z,99.94
2018-06-18T19:13:25.587Z,100.00
2018-06-18T19:15:55.857Z,100.00
2018-06-18T19:18:25.143Z,99.83
2018-06-18T19:21:01.706Z,100.00
2018-06-18T19:23:30.950Z,100.00
2018-06-18T19:25:59.946Z,99.48
2018-06-18T19:28:29.327Z,99.91
2018-06-18T19:31:05.316Z,99.56
2018-06-18T19:33:38.992Z,100.00
2018-06-18T19:36:08.837Z,100.00
2018-06-18T19:38:38.485Z,99.07
2018-06-18T19:41:07.641Z,100.00
2018-06-18T19:43:36.808Z,100.00
2018-06-18T19:46:06.303Z,100.00
2018-06-18T19:48:42.248Z,100.00
2018-06-18T19:51:11.593Z,100.00
2018-06-18T19:53:40.741Z,100.00
2018-06-18T19:56:09.837Z,100.00
2018-06-18T19:58:38.778Z,100.00
2018-06-18T20:01:09.198Z,100.00
2018-06-18T20:03:38.329Z,100.00
2018-06-18T20:06:07.589Z,100.00
2018-06-18T20:08:36.556Z,100.00
2018-06-18T20:11:05.551Z,100.00
2018-06-18T20:13:34.748Z,100.00
2018-06-18T20:16:04.113Z,100.00
2018-06-18T20:18:33.456Z,100.00
2018-06-18T20:21:02.708Z,100.00
2018-06-18T20:23:31.844Z,100.00
2018-06-18T20:26:07.290Z,100.00
2018-06-18T20:28:36.505Z,100.00
2018-06-18T20:31:05.719Z,100.00
2018-06-18T20:33:36.960Z,100.00
2018-06-18T20:36:15.061Z,100.00
2018-06-18T20:38:44.408Z,100.00
2018-06-18T20:41:13.652Z,100.00
2018-06-18T20:44:07.677Z,100.00
2018-06-18T20:46:37.027Z,100.00
2018-06-18T20:49:07.397Z,100.00
2018-06-18T20:51:36.636Z,100.00
2018-06-18T20:54:05.981Z,100.00
2018-06-18T20:56:35.280Z,100.00
2018-06-18T20:59:05.087Z,100.00
2018-06-18T21:01:34.287Z,100.00
2018-06-18T21:04:03.577Z,100.00
2018-06-18T21:06:32.781Z,100.00
2018-06-18T21:09:02.124Z,100.00
2018-06-18T21:11:31.340Z,100.00
2018-06-18T21:14:00.567Z,100.00
2018-06-18T21:16:29.864Z,100.00
2018-06-18T21:18:58.938Z,100.00
2018-06-18T21:21:28.024Z,100.00
2018-06-18T21:23:59.171Z,100.00
2018-06-18T21:26:28.440Z,100.00
2018-06-18T21:28:57.691Z,100.00
2018-06-18T21:31:26.863Z,100.00
2018-06-18T21:33:56.060Z,100.00
2018-06-18T21:36:25.044Z,100.00
2018-06-18T21:38:54.415Z,100.00
2018-06-18T21:41:23.619Z,100.00
2018-06-18T21:43:53.839Z,100.00
2018-06-18T21:46:23.017Z,100.00
2018-06-18T21:48:52.240Z,100.00
2018-06-18T21:51:21.537Z,100.00
2018-06-18T21:53:50.624Z,100.00
2018-06-18T21:56:19.938Z,100.00
2018-06-18T21:58:49.189Z,100.00
2018-06-18T22:01:28.222Z,100.00
2018-06-18T22:03:57.404Z,100.00
2018-06-18T22:06:26.536Z,100.00
2018-06-18T22:08:55.772Z,100.00
2018-06-18T22:11:25.124Z,100.00
2018-06-18T22:13:54.425Z,100.00
2018-06-18T22:16:23.603Z,100.00
2018-06-18T22:18:52.816Z,100.00
2018-06-18T22:21:22.049Z,100.00
2018-06-18T22:23:51.409Z,100.00
2018-06-18T22:26:20.848Z,100.00
2018-06-18T22:28:49.818Z,100.00
2018-06-18T22:31:19.196Z,100.00
2018-06-18T22:33:48.553Z,100.00
2018-06-18T22:36:17.953Z,100.00
2018-06-18T22:38:47.304Z,100.00
2018-06-18T22:41:16.641Z,100.00
2018-06-18T22:43:45.776Z,100.00
2018-06-18T22:46:14.748Z,100.00
2018-06-18T22:48:44.067Z,100.00
2018-06-18T22:51:13.404Z,100.00
2018-06-18T22:53:42.720Z,100.00
2018-06-18T22:56:12.084Z,100.00
2018-06-18T22:58:41.381Z,100.00
2018-06-18T23:01:10.728Z,100.00
2018-06-18T23:03:39.868Z,100.00
2018-06-18T23:06:09.271Z,100.00
2018-06-18T23:08:38.585Z,100.00
2018-06-18T23:11:07.932Z,100.00
2018-06-18T23:13:37.851Z,100.00
2018-06-18T23:16:08.296Z,100.00
2018-06-18T23:18:37.483Z,100.00
2018-06-18T23:21:06.712Z,100.00
2018-06-18T23:23:36.097Z,100.00
2018-06-18T23:26:05.333Z,100.00
2018-06-18T23:28:45.591Z,100.00
2018-06-18T23:31:14.956Z,100.00
2018-06-18T23:33:44.364Z,100.00
2018-06-18T23:36:13.714Z,100.00
2018-06-18T23:38:43.012Z,100.00
2018-06-18T23:41:12.352Z,100.00
2018-06-18T23:43:41.559Z,100.00
2018-06-18T23:46:10.973Z,100.00
2018-06-18T23:48:40.204Z,100.00
2018-06-18T23:51:09.472Z,100.00
2018-06-18T23:53:38.668Z,100.00
2018-06-18T23:56:07.968Z,100.00
2018-06-18T23:58:37.248Z,100.00
